Time;durP1;ratioP1;P1;durP2;ratioP2;P2;SDS_P1;SDS_P2;PMS_P1;PMS_P2;Temp;Humidity;BMP_temperature;BMP_pressure;BME280_temperature;BME280_humidity;BME280_pressure;Samples;Min_cycle;Max_cycle;Signal;HPM_P1;HPM_P2
2021/07/03 00:02:54;;;;;;;13.23;9.40;;;;;;;15.83;79.01;100523.41;20570677;28;20047;-69
2021/07/03 00:12:56;;;;;;;16.70;10.90;;;;;;;15.79;79.09;100529.72;20563026;28;20105;-69
2021/07/03 00:22:58;;;;;;;14.55;10.20;;;;;;;15.77;78.95;100521.00;20578754;28;20060;-69
2021/07/03 00:32:59;;;;;;;13.30;9.27;;;;;;;15.53;79.57;100522.69;20569644;28;20517;-69
2021/07/03 00:43:02;;;;;;;14.25;10.00;;;;;;;15.54;79.28;100517.34;20577484;28;20508;-69
2021/07/03 00:53:04;;;;;;;16.42;10.40;;;;;;;15.24;80.67;100523.66;20576513;28;20058;-69
2021/07/03 01:03:06;;;;;;;15.00;10.15;;;;;;;15.17;81.22;100506.28;20568066;28;20105;-69
2021/07/03 01:13:08;;;;;;;17.20;11.00;;;;;;;15.13;81.09;100518.72;20576634;28;20051;-69
2021/07/03 01:23:10;;;;;;;15.77;10.93;;;;;;;14.98;81.54;100530.63;20574443;28;20055;-69
2021/07/03 01:33:11;;;;;;;17.42;11.63;;;;;;;14.76;83.22;100530.44;20568298;28;20054;-69
2021/07/03 01:43:25;;;;;;;16.73;10.82;;;;;;;14.78;82.80;100523.34;20553900;28;20149;-69
2021/07/03 01:53:27;;;;;;;16.15;11.27;;;;;;;14.76;82.12;100527.81;20589164;28;20047;-69
2021/07/03 02:03:29;;;;;;;15.60;11.27;;;;;;;14.71;82.40;100527.09;20580541;28;20038;-69
2021/07/03 02:13:31;;;;;;;17.92;11.23;;;;;;;14.52;82.56;100513.59;20587200;28;20047;-68
2021/07/03 02:23:33;;;;;;;15.23;10.32;;;;;;;14.39;82.79;100512.22;20587228;28;20051;-69
2021/07/03 02:33:34;;;;;;;15.98;10.25;;;;;;;14.24;83.26;100510.03;20593670;28;20047;-68
2021/07/03 02:43:36;;;;;;;16.63;11.40;;;;;;;14.18;82.99;100523.34;20592372;28;20043;-69
2021/07/03 02:53:38;;;;;;;22.27;12.10;;;;;;;14.16;84.48;100506.75;20584346;28;20051;-68
2021/07/03 03:03:42;;;;;;;17.50;11.45;;;;;;;14.15;83.87;100499.75;20575739;28;20493;-68
2021/07/03 03:13:44;;;;;;;16.03;10.97;;;;;;;14.11;83.36;100499.84;20583177;28;20051;-68
2021/07/03 03:23:46;;;;;;;15.13;10.60;;;;;;;13.85;84.65;100500.59;20581608;28;20055;-69
2021/07/03 03:33:47;;;;;;;16.63;11.32;;;;;;;13.94;83.99;100506.47;20571834;28;20047;-69
2021/07/03 03:43:52;;;;;;;18.17;11.50;;;;;;;14.03;82.85;100512.34;20563629;28;20126;-69
2021/07/03 03:53:53;;;;;;;16.88;10.65;;;;;;;14.00;83.70;100511.59;20580217;28;20050;-68
2021/07/03 04:03:56;;;;;;;17.67;11.48;;;;;;;14.26;82.38;100511.69;20569572;28;20046;-69
2021/07/03 04:13:57;;;;;;;17.80;10.80;;;;;;;14.07;83.28;100511.34;20576437;28;20109;-69
2021/07/03 04:23:59;;;;;;;17.58;10.55;;;;;;;14.31;82.91;100514.19;20577963;28;20516;-69
2021/07/03 04:34:01;;;;;;;17.80;10.70;;;;;;;14.86;80.48;100509.94;20568264;28;20046;-69
2021/07/03 04:44:05;;;;;;;15.27;10.25;;;;;;;16.58;73.71;100494.22;20542265;28;20047;-68
2021/07/03 04:54:07;;;;;;;17.00;9.77;;;;;;;16.98;72.54;100509.38;20571912;28;20051;-68
2021/07/03 05:04:09;;;;;;;12.80;8.57;;;;;;;16.51;75.24;100501.50;20550758;28;20358;-68
2021/07/03 05:14:11;;;;;;;15.57;9.50;;;;;;;16.90;74.78;100498.25;20587944;28;20050;-68
2021/07/03 05:24:13;;;;;;;15.95;9.73;;;;;;;16.88;74.22;100486.88;20592797;28;20580;-68
2021/07/03 05:34:15;;;;;;;14.48;8.70;;;;;;;16.83;71.66;100486.22;20583813;28;20121;-68
2021/07/03 05:44:17;;;;;;;11.90;7.75;;;;;;;16.91;70.35;100495.56;20591271;28;20413;-68
2021/07/03 05:54:19;;;;;;;17.08;9.48;;;;;;;17.07;70.00;100490.50;20591361;28;20117;-68
2021/07/03 06:04:21;;;;;;;11.25;7.47;;;;;;;17.43;69.51;100484.56;20581149;28;20050;-67
2021/07/03 06:14:23;;;;;;;12.48;7.93;;;;;;;17.78;67.75;100474.28;20588651;28;20051;-67
2021/07/03 06:24:25;;;;;;;11.70;7.85;;;;;;;17.82;66.71;100481.16;20586514;28;20663;-67
2021/07/03 06:34:26;;;;;;;10.45;7.00;;;;;;;18.10;65.57;100486.94;20565923;28;20110;-67
2021/07/03 06:44:28;;;;;;;13.60;7.72;;;;;;;18.57;64.29;100467.97;20507662;28;20121;-68
2021/07/03 06:54:30;;;;;;;11.00;7.05;;;;;;;18.57;63.22;100457.34;20507264;28;20418;-68
2021/07/03 07:04:32;;;;;;;13.82;8.55;;;;;;;19.33;62.60;100460.69;20532302;28;20070;-68
2021/07/03 07:14:34;;;;;;;10.45;7.30;;;;;;;19.59;59.74;100450.53;20518922;28;20105;-68
2021/07/03 07:24:35;;;;;;;10.65;7.50;;;;;;;19.89;60.26;100451.63;20531301;28;20110;-68
2021/07/03 07:34:37;;;;;;;12.18;7.32;;;;;;;20.30;60.16;100453.81;20510083;28;20043;-68
2021/07/03 07:44:39;;;;;;;12.10;7.50;;;;;;;20.18;58.99;100447.38;20506452;28;20097;-68
2021/07/03 07:54:41;;;;;;;13.45;7.93;;;;;;;20.35;57.49;100446.44;20503562;28;20565;-68
2021/07/03 08:04:43;;;;;;;9.82;7.18;;;;;;;20.69;59.62;100431.25;20501181;28;20054;-68
2021/07/03 08:14:44;;;;;;;15.48;8.32;;;;;;;21.14;60.33;100425.09;20501124;28;20051;-68
2021/07/03 08:24:46;;;;;;;11.65;7.65;;;;;;;21.04;59.42;100426.56;20506478;28;20106;-68
2021/07/03 08:34:50;;;;;;;12.25;7.55;;;;;;;21.37;57.73;100413.09;20499553;29;20043;-69
2021/07/03 08:44:52;;;;;;;11.00;7.20;;;;;;;21.90;54.21;100400.09;20498119;28;20043;-68
2021/07/03 08:55:01;;;;;;;11.23;7.97;;;;;;;22.23;55.67;100389.09;20551021;28;20433;-69
2021/07/03 09:05:15;;;;;;;8.52;6.43;;;;;;;22.54;50.21;100383.50;20576519;28;20046;-68
2021/07/03 09:15:20;;;;;;;10.83;6.67;;;;;;;22.99;52.00;100386.75;20543981;28;20047;-69
2021/07/03 09:25:23;;;;;;;8.88;5.25;;;;;;;23.32;50.03;100381.88;20574974;28;20129;-69
2021/07/03 09:35:25;;;;;;;7.55;5.20;;;;;;;23.66;49.12;100362.53;20576717;28;20101;-70
2021/07/03 09:45:27;;;;;;;8.65;5.47;;;;;;;24.10;47.67;100363.88;20575700;28;20043;-69
2021/07/03 09:55:29;;;;;;;8.40;5.63;;;;;;;24.32;48.17;100350.59;20578904;28;20051;-69
2021/07/03 10:05:33;;;;;;;7.43;5.32;;;;;;;24.57;44.50;100338.09;20588756;28;20122;-69
2021/07/03 10:15:36;;;;;;;6.80;4.35;;;;;;;25.12;40.72;100325.06;20588566;28;20055;-69
2021/07/03 10:25:41;;;;;;;11.75;5.72;;;;;;;25.27;41.29;100327.38;20587986;28;20055;-68
2021/07/03 10:35:48;;;;;;;8.05;4.72;;;;;;;25.68;38.34;100308.97;20588331;28;20039;-69
2021/07/03 10:45:55;;;;;;;6.85;4.82;;;;;;;25.57;38.56;100307.16;20588093;28;20114;-69
2021/07/03 10:56:12;;;;;;;7.80;4.72;;;;;;;25.78;40.58;100305.50;20586858;28;20157;-70
2021/07/03 11:06:16;;;;;;;6.57;4.20;;;;;;;26.14;39.12;100299.91;20581426;28;20501;-68
2021/07/03 11:16:22;;;;;;;7.88;4.88;;;;;;;25.96;37.05;100278.13;20583995;28;20481;-68
2021/07/03 11:26:25;;;;;;;6.45;3.90;;;;;;;26.20;37.80;100259.16;20566532;28;20433;-67
2021/07/03 11:36:28;;;;;;;6.45;4.35;;;;;;;26.31;38.05;100253.75;20564904;28;20050;-68
2021/07/03 11:46:30;;;;;;;5.63;3.88;;;;;;;26.21;35.98;100247.47;20582839;28;20043;-68
2021/07/03 11:56:32;;;;;;;6.35;3.75;;;;;;;26.35;34.57;100226.53;20581882;28;20058;-67
2021/07/03 12:06:34;;;;;;;6.18;3.53;;;;;;;26.47;36.28;100226.50;20579742;28;20062;-68
2021/07/03 12:16:39;;;;;;;9.60;4.30;;;;;;;25.98;34.71;100226.06;20578777;28;20053;-68
2021/07/03 12:26:50;;;;;;;5.60;3.70;;;;;;;26.33;35.86;100209.69;20578485;28;20055;-70
2021/07/03 12:36:58;;;;;;;5.40;3.72;;;;;;;26.46;35.69;100192.56;20576635;28;20054;-70
2021/07/03 12:47:00;;;;;;;7.25;4.05;;;;;;;26.45;36.26;100181.00;20578758;28;20051;-70
2021/07/03 12:57:03;;;;;;;5.73;3.73;;;;;;;26.01;36.24;100176.66;20578210;28;20053;-71
2021/07/03 13:07:05;;;;;;;5.93;4.00;;;;;;;26.59;34.96;100161.00;20575880;28;20183;-70
2021/07/03 13:17:07;;;;;;;6.70;3.80;;;;;;;26.71;36.58;100154.56;20574828;28;20146;-69
2021/07/03 13:27:08;;;;;;;5.90;3.72;;;;;;;26.57;33.73;100146.84;20570744;28;20445;-69
2021/07/03 13:37:10;;;;;;;8.30;3.80;;;;;;;26.80;34.40;100145.69;20588577;28;20097;-68
2021/07/03 13:47:11;;;;;;;6.82;4.15;;;;;;;26.43;34.57;100145.34;20591485;28;20094;-70
2021/07/03 13:57:13;;;;;;;5.90;3.75;;;;;;;27.14;34.22;100134.69;20590131;28;20105;-71
2021/07/03 14:07:15;;;;;;;7.85;3.92;;;;;;;27.34;33.86;100122.97;20589739;28;20097;-69
2021/07/03 14:17:17;;;;;;;6.72;3.80;;;;;;;27.29;33.26;100121.69;20588258;28;20420;-69
2021/07/03 14:27:19;;;;;;;5.97;3.83;;;;;;;27.43;35.67;100117.78;20587158;28;20043;-69
2021/07/03 14:37:21;;;;;;;5.32;3.55;;;;;;;27.09;33.38;100110.91;20568200;28;20078;-69
2021/07/03 14:47:23;;;;;;;5.78;3.40;;;;;;;27.53;32.79;100097.97;20585293;28;20101;-69
2021/07/03 14:57:25;;;;;;;5.10;3.33;;;;;;;27.17;33.72;100086.03;20585184;28;20469;-70
2021/07/03 15:07:27;;;;;;;6.82;3.60;;;;;;;27.39;32.31;100089.47;20584649;28;20042;-69
2021/07/03 15:17:28;;;;;;;5.93;4.00;;;;;;;27.62;33.33;100085.50;20583296;28;20047;-69
2021/07/03 15:27:30;;;;;;;7.43;4.00;;;;;;;27.07;33.51;100079.75;20582762;28;20051;-69
2021/07/03 15:37:33;;;;;;;6.40;3.50;;;;;;;26.68;36.03;100084.97;20581591;28;20043;-69
2021/07/03 15:47:35;;;;;;;5.50;3.83;;;;;;;26.62;35.57;100080.16;20581507;28;20050;-70
2021/07/03 15:57:37;;;;;;;8.33;4.27;;;;;;;26.25;38.36;100077.94;20577683;28;20043;-70
2021/07/03 16:07:40;;;;;;;7.80;4.13;;;;;;;25.75;40.99;100069.72;20578639;28;20062;-69
2021/07/03 16:17:43;;;;;;;5.38;3.72;;;;;;;25.58;42.27;100089.00;20579224;28;20046;-69
2021/07/03 16:27:45;;;;;;;7.07;3.85;;;;;;;25.45;42.17;100072.25;20577739;28;20047;-70
2021/07/03 16:37:47;;;;;;;6.80;3.47;;;;;;;25.25;43.02;100081.97;20577298;28;20477;-70
2021/07/03 16:47:49;;;;;;;7.43;3.53;;;;;;;25.30;43.83;100077.06;20578154;28;20059;-71
2021/07/03 16:57:50;;;;;;;5.95;3.63;;;;;;;24.67;43.91;100076.72;20577669;28;20046;-70
2021/07/03 17:07:52;;;;;;;7.22;4.13;;;;;;;24.50;51.61;100087.94;20574200;28;20047;-69
2021/07/03 17:17:57;;;;;;;7.88;4.20;;;;;;;24.16;51.48;100109.28;20575272;28;20047;-70
2021/07/03 17:27:58;;;;;;;10.23;5.15;;;;;;;23.88;52.63;100094.47;20576816;28;20489;-70
2021/07/03 17:38:00;;;;;;;7.75;4.20;;;;;;;23.90;51.85;100089.00;20573987;28;20090;-69
2021/07/03 17:48:01;;;;;;;7.75;4.63;;;;;;;23.98;51.52;100099.97;20575900;28;20047;-70
2021/07/03 17:58:04;;;;;;;9.50;4.47;;;;;;;23.86;53.28;100095.53;20574099;28;20063;-70
2021/07/03 18:08:08;;;;;;;7.85;4.75;;;;;;;23.70;53.84;100090.50;20573464;28;20050;-70
2021/07/03 18:18:09;;;;;;;;;;;;;;;23.40;54.18;100085.63;20579212;28;20050;-69
2021/07/03 18:28:11;;;;;;;8.38;5.90;;;;;;;23.40;54.72;100113.19;20587602;28;19933;-70
2021/07/03 18:38:13;;;;;;;8.88;5.75;;;;;;;23.50;53.42;100108.88;20586098;28;20046;-70
2021/07/03 18:48:15;;;;;;;7.13;4.82;;;;;;;23.32;54.39;100101.34;20587589;28;20470;-68
2021/07/03 18:58:18;;;;;;;9.45;5.28;;;;;;;22.90;56.40;100104.38;20585542;28;20054;-69
2021/07/03 19:08:19;;;;;;;12.38;7.22;;;;;;;22.61;58.23;100100.19;20583939;28;20034;-69
2021/07/03 19:18:21;;;;;;;8.60;5.95;;;;;;;22.35;59.33;100115.38;20583649;28;20047;-69
2021/07/03 19:28:23;;;;;;;8.88;6.05;;;;;;;22.03;60.93;100121.03;20582853;28;20142;-68
2021/07/03 19:38:25;;;;;;;10.27;6.00;;;;;;;21.77;62.60;100137.00;20581423;28;20125;-69
2021/07/03 19:48:26;;;;;;;8.23;5.45;;;;;;;21.63;63.24;100161.03;20581918;28;20081;-69
2021/07/03 19:58:28;;;;;;;11.10;5.60;;;;;;;21.43;64.67;100164.13;20579621;28;20469;-68
2021/07/03 20:08:33;;;;;;;9.43;6.45;;;;;;;21.21;65.91;100173.44;20580355;28;20082;-68
2021/07/03 20:18:35;;;;;;;8.02;5.32;;;;;;;21.09;66.32;100176.91;20580513;28;20106;-68
2021/07/03 20:28:37;;;;;;;9.73;5.93;;;;;;;20.88;67.32;100180.88;20580301;28;20058;-68
2021/07/03 20:38:41;;;;;;;7.80;5.10;;;;;;;20.81;67.41;100182.22;20577733;28;20039;-69
2021/07/03 20:48:43;;;;;;;7.65;4.82;;;;;;;20.68;67.81;100201.59;20572439;28;20085;-69
2021/07/03 20:58:45;;;;;;;8.55;5.43;;;;;;;20.47;68.72;100216.19;20573318;28;20058;-69
2021/07/03 21:08:46;;;;;;;8.38;5.10;;;;;;;20.44;69.68;100206.56;20576255;28;20513;-69
2021/07/03 21:18:52;;;;;;;8.73;5.43;;;;;;;20.39;70.17;100210.44;20576565;28;20054;-69
2021/07/03 21:28:54;;;;;;;8.48;5.50;;;;;;;20.39;70.11;100199.81;20576373;28;20098;-69
2021/07/03 21:38:56;;;;;;;9.23;6.15;;;;;;;20.25;70.97;100190.84;20574814;28;20095;-69
2021/07/03 21:48:58;;;;;;;8.40;5.40;;;;;;;20.13;71.61;100196.03;20575495;28;20552;-69
2021/07/03 21:59:00;;;;;;;8.18;5.65;;;;;;;20.16;71.59;100178.09;20590382;28;20081;-69
2021/07/03 22:09:06;;;;;;;8.73;5.32;;;;;;;19.95;72.06;100169.56;20583932;28;20058;-69
2021/07/03 22:19:08;;;;;;;7.78;5.20;;;;;;;19.92;71.67;100166.22;20588011;28;20560;-69
2021/07/03 22:29:10;;;;;;;8.65;5.55;;;;;;;19.82;71.99;100167.72;20583617;28;20047;-69
2021/07/03 22:39:14;;;;;;;8.10;5.33;;;;;;;19.67;72.74;100164.13;20583870;28;20490;-68
2021/07/03 22:49:15;;;;;;;7.53;5.40;;;;;;;19.49;73.15;100163.34;20585912;28;20054;-68
2021/07/03 22:59:17;;;;;;;9.20;6.13;;;;;;;19.42;73.59;100167.31;20585266;28;20054;-67
2021/07/03 23:09:20;;;;;;;8.77;5.70;;;;;;;19.16;74.95;100161.66;20583518;28;20055;-68
2021/07/03 23:19:22;;;;;;;8.98;5.75;;;;;;;19.10;75.41;100148.69;20576684;28;20459;-67
2021/07/03 23:29:24;;;;;;;9.20;5.63;;;;;;;18.94;75.92;100129.25;20583756;28;20042;-68
2021/07/03 23:39:26;;;;;;;8.52;5.50;;;;;;;18.76;76.36;100136.41;20581798;28;20050;-68
2021/07/03 23:49:29;;;;;;;9.45;6.05;;;;;;;18.60;77.00;100130.19;20572263;28;20101;-68
2021/07/03 23:59:31;;;;;;;9.35;6.15;;;;;;;18.49;77.69;100125.44;20581731;28;20482;-68
